sensor_id;sensor_type;location;lat;lon;timestamp;pressure;altitude;pressure_sealevel;temperature
30765;BMP180;494;48.744;10.106;2023-02-28T00:00:43;95983.00;;;-0.20
30765;BMP180;494;48.744;10.106;2023-02-28T00:03:14;95280.00;;;1.30
30765;BMP180;494;48.744;10.106;2023-02-28T00:05:45;96286.00;;;0.80
30765;BMP180;494;48.744;10.106;2023-02-28T00:08:14;96319.00;;;1.10
30765;BMP180;494;48.744;10.106;2023-02-28T00:10:44;96080.00;;;1.00
30765;BMP180;494;48.744;10.106;2023-02-28T00:13:12;95172.00;;;1.20
30765;BMP180;494;48.744;10.106;2023-02-28T00:15:41;94777.00;;;-1.90
30765;BMP180;494;48.744;10.106;2023-02-28T00:18:12;96431.00;;;1.30
30765;BMP180;494;48.744;10.106;2023-02-28T00:20:42;95141.00;;;1.10
30765;BMP180;494;48.744;10.106;2023-02-28T00:23:11;95697.00;;;1.20
30765;BMP180;494;48.744;10.106;2023-02-28T00:25:40;96329.00;;;1.20
30765;BMP180;494;48.744;10.106;2023-02-28T00:28:12;96499.00;;;1.10
30765;BMP180;494;48.744;10.106;2023-02-28T00:30:42;95810.00;;;1.00
30765;BMP180;494;48.744;10.106;2023-02-28T00:33:12;95976.00;;;-0.80
30765;BMP180;494;48.744;10.106;2023-02-28T00:35:41;95996.00;;;1.00
30765;BMP180;494;48.744;10.106;2023-02-28T00:38:09;95876.00;;;0.90
30765;BMP180;494;48.744;10.106;2023-02-28T00:40:38;95849.00;;;-1.80
30765;BMP180;494;48.744;10.106;2023-02-28T00:43:07;96125.00;;;1.40
30765;BMP180;494;48.744;10.106;2023-02-28T00:45:35;96348.00;;;1.00
30765;BMP180;494;48.744;10.106;2023-02-28T00:48:05;96357.00;;;1.00
30765;BMP180;494;48.744;10.106;2023-02-28T00:50:35;94681.00;;;1.10
30765;BMP180;494;48.744;10.106;2023-02-28T00:53:03;96295.00;;;1.30
30765;BMP180;494;48.744;10.106;2023-02-28T00:55:32;95750.00;;;1.00
30765;BMP180;494;48.744;10.106;2023-02-28T00:58:01;96211.00;;;1.10
30765;BMP180;494;48.744;10.106;2023-02-28T01:00:30;96195.00;;;1.00
30765;BMP180;494;48.744;10.106;2023-02-28T01:02:58;96134.00;;;1.10
30765;BMP180;494;48.744;10.106;2023-02-28T01:05:27;96370.00;;;-0.90
30765;BMP180;494;48.744;10.106;2023-02-28T01:07:57;95158.00;;;-2.70
30765;BMP180;494;48.744;10.106;2023-02-28T01:10:28;96470.00;;;0.90
30765;BMP180;494;48.744;10.106;2023-02-28T01:12:58;95831.00;;;-2.50
30765;BMP180;494;48.744;10.106;2023-02-28T01:15:27;95910.00;;;1.10
30765;BMP180;494;48.744;10.106;2023-02-28T01:17:56;95776.00;;;0.50
30765;BMP180;494;48.744;10.106;2023-02-28T01:20:25;95264.00;;;-3.20
30765;BMP180;494;48.744;10.106;2023-02-28T01:22:53;95757.00;;;-1.20
30765;BMP180;494;48.744;10.106;2023-02-28T01:25:23;96345.00;;;0.60
30765;BMP180;494;48.744;10.106;2023-02-28T01:27:52;95566.00;;;0.60
30765;BMP180;494;48.744;10.106;2023-02-28T01:30:21;95795.00;;;-1.50
30765;BMP180;494;48.744;10.106;2023-02-28T01:32:50;96205.00;;;0.80
30765;BMP180;494;48.744;10.106;2023-02-28T01:35:20;96377.00;;;0.80
30765;BMP180;494;48.744;10.106;2023-02-28T01:37:49;95957.00;;;0.50
30765;BMP180;494;48.744;10.106;2023-02-28T01:40:18;95699.00;;;1.00
30765;BMP180;494;48.744;10.106;2023-02-28T01:42:49;96189.00;;;0.70
30765;BMP180;494;48.744;10.106;2023-02-28T01:45:26;96176.00;;;0.60
30765;BMP180;494;48.744;10.106;2023-02-28T01:48:01;96198.00;;;0.20
30765;BMP180;494;48.744;10.106;2023-02-28T01:50:37;94762.00;;;0.10
30765;BMP180;494;48.744;10.106;2023-02-28T01:53:14;96236.00;;;0.80
30765;BMP180;494;48.744;10.106;2023-02-28T01:55:48;96207.00;;;0.70
30765;BMP180;494;48.744;10.106;2023-02-28T01:58:21;95572.00;;;1.00
30765;BMP180;494;48.744;10.106;2023-02-28T02:00:51;95201.00;;;0.70
30765;BMP180;494;48.744;10.106;2023-02-28T02:03:20;95923.00;;;0.90
30765;BMP180;494;48.744;10.106;2023-02-28T02:05:49;96309.00;;;0.90
30765;BMP180;494;48.744;10.106;2023-02-28T02:08:23;96240.00;;;0.70
30765;BMP180;494;48.744;10.106;2023-02-28T02:10:55;96055.00;;;-0.80
30765;BMP180;494;48.744;10.106;2023-02-28T02:14:10;95438.00;;;0.80
30765;BMP180;494;48.744;10.106;2023-02-28T02:16:56;95709.00;;;0.90
30765;BMP180;494;48.744;10.106;2023-02-28T02:20:16;95871.00;;;-2.10
30765;BMP180;494;48.744;10.106;2023-02-28T02:23:31;95071.00;;;1.10
30765;BMP180;494;48.744;10.106;2023-02-28T02:26:26;95656.00;;;-3.50
30765;BMP180;494;48.744;10.106;2023-02-28T02:35:29;94648.00;;;-2.50
30765;BMP180;494;48.744;10.106;2023-02-28T02:38:08;96445.00;;;0.80
30765;BMP180;494;48.744;10.106;2023-02-28T02:40:48;96354.00;;;-2.60
30765;BMP180;494;48.744;10.106;2023-02-28T02:43:24;94963.00;;;1.00
30765;BMP180;494;48.744;10.106;2023-02-28T02:45:57;94977.00;;;0.80
30765;BMP180;494;48.744;10.106;2023-02-28T02:48:32;96371.00;;;0.90
30765;BMP180;494;48.744;10.106;2023-02-28T02:51:09;96200.00;;;-2.60
30765;BMP180;494;48.744;10.106;2023-02-28T02:53:46;96211.00;;;0.70
30765;BMP180;494;48.744;10.106;2023-02-28T02:56:23;95725.00;;;1.00
30765;BMP180;494;48.744;10.106;2023-02-28T02:58:59;96317.00;;;0.90
30765;BMP180;494;48.744;10.106;2023-02-28T03:01:31;94591.00;;;0.60
30765;BMP180;494;48.744;10.106;2023-02-28T03:04:05;94822.00;;;-0.90
30765;BMP180;494;48.744;10.106;2023-02-28T03:06:36;95961.00;;;-1.50
30765;BMP180;494;48.744;10.106;2023-02-28T03:09:05;95657.00;;;-3.70
30765;BMP180;494;48.744;10.106;2023-02-28T03:11:37;96048.00;;;0.40
30765;BMP180;494;48.744;10.106;2023-02-28T03:14:38;96268.00;;;0.60
30765;BMP180;494;48.744;10.106;2023-02-28T03:20:35;96319.00;;;0.70
30765;BMP180;494;48.744;10.106;2023-02-28T03:23:19;94163.00;;;-1.40
30765;BMP180;494;48.744;10.106;2023-02-28T03:25:56;95721.00;;;-2.50
30765;BMP180;494;48.744;10.106;2023-02-28T03:28:38;94903.00;;;-1.40
30765;BMP180;494;48.744;10.106;2023-02-28T03:31:17;96168.00;;;0.30
30765;BMP180;494;48.744;10.106;2023-02-28T03:33:55;95280.00;;;-3.40
30765;BMP180;494;48.744;10.106;2023-02-28T03:36:30;95159.00;;;0.20
30765;BMP180;494;48.744;10.106;2023-02-28T03:39:07;95278.00;;;0.00
30765;BMP180;494;48.744;10.106;2023-02-28T03:41:42;95575.00;;;-2.90
30765;BMP180;494;48.744;10.106;2023-02-28T03:44:19;96270.00;;;-2.00
30765;BMP180;494;48.744;10.106;2023-02-28T03:46:57;96347.00;;;0.80
30765;BMP180;494;48.744;10.106;2023-02-28T03:49:34;96198.00;;;0.70
30765;BMP180;494;48.744;10.106;2023-02-28T03:52:08;95500.00;;;0.70
30765;BMP180;494;48.744;10.106;2023-02-28T03:54:45;96166.00;;;0.90
30765;BMP180;494;48.744;10.106;2023-02-28T03:57:23;96431.00;;;0.90
30765;BMP180;494;48.744;10.106;2023-02-28T03:59:59;95408.00;;;0.40
30765;BMP180;494;48.744;10.106;2023-02-28T04:02:31;95952.00;;;0.10
30765;BMP180;494;48.744;10.106;2023-02-28T04:05:00;96442.00;;;0.80
30765;BMP180;494;48.744;10.106;2023-02-28T04:07:30;94882.00;;;-1.40
30765;BMP180;494;48.744;10.106;2023-02-28T04:10:00;95027.00;;;-3.80
30765;BMP180;494;48.744;10.106;2023-02-28T04:12:29;95851.00;;;0.90
30765;BMP180;494;48.744;10.106;2023-02-28T04:14:58;94792.00;;;0.80
30765;BMP180;494;48.744;10.106;2023-02-28T04:17:26;96363.00;;;-3.10
30765;BMP180;494;48.744;10.106;2023-02-28T04:19:55;95783.00;;;0.50
30765;BMP180;494;48.744;10.106;2023-02-28T04:22:24;96430.00;;;0.70
30765;BMP180;494;48.744;10.106;2023-02-28T04:24:54;95242.00;;;-1.90
30765;BMP180;494;48.744;10.106;2023-02-28T04:27:24;96144.00;;;0.60
30765;BMP180;494;48.744;10.106;2023-02-28T04:29:53;94666.00;;;0.60
30765;BMP180;494;48.744;10.106;2023-02-28T04:32:21;95276.00;;;-2.90
30765;BMP180;494;48.744;10.106;2023-02-28T04:34:50;96393.00;;;0.70
30765;BMP180;494;48.744;10.106;2023-02-28T04:37:19;95158.00;;;0.30
30765;BMP180;494;48.744;10.106;2023-02-28T04:39:48;94768.00;;;0.40
30765;BMP180;494;48.744;10.106;2023-02-28T04:42:17;94536.00;;;-1.40
30765;BMP180;494;48.744;10.106;2023-02-28T04:44:47;95935.00;;;0.60
30765;BMP180;494;48.744;10.106;2023-02-28T04:47:15;96356.00;;;0.60
30765;BMP180;494;48.744;10.106;2023-02-28T04:49:44;94833.00;;;-0.20
30765;BMP180;494;48.744;10.106;2023-02-28T04:52:13;96427.00;;;0.30
30765;BMP180;494;48.744;10.106;2023-02-28T04:54:41;96176.00;;;0.40
30765;BMP180;494;48.744;10.106;2023-02-28T04:57:10;95992.00;;;0.50
30765;BMP180;494;48.744;10.106;2023-02-28T04:59:39;95222.00;;;-1.40
30765;BMP180;494;48.744;10.106;2023-02-28T05:02:09;94725.00;;;-0.10
30765;BMP180;494;48.744;10.106;2023-02-28T05:04:38;95687.00;;;-0.40
30765;BMP180;494;48.744;10.106;2023-02-28T05:07:06;94784.00;;;0.60
30765;BMP180;494;48.744;10.106;2023-02-28T05:09:35;94138.00;;;-3.50
30765;BMP180;494;48.744;10.106;2023-02-28T05:12:04;95878.00;;;0.90
30765;BMP180;494;48.744;10.106;2023-02-28T05:14:33;95183.00;;;-2.20
30765;BMP180;494;48.744;10.106;2023-02-28T05:17:02;96194.00;;;-2.80
30765;BMP180;494;48.744;10.106;2023-02-28T05:19:32;95205.00;;;-0.60
30765;BMP180;494;48.744;10.106;2023-02-28T05:22:00;95172.00;;;-0.40
30765;BMP180;494;48.744;10.106;2023-02-28T05:24:29;95696.00;;;-2.60
30765;BMP180;494;48.744;10.106;2023-02-28T05:26:58;94594.00;;;1.00
30765;BMP180;494;48.744;10.106;2023-02-28T05:29:27;95147.00;;;-2.20
30765;BMP180;494;48.744;10.106;2023-02-28T05:31:56;95404.00;;;0.80
30765;BMP180;494;48.744;10.106;2023-02-28T05:34:24;94990.00;;;0.80
30765;BMP180;494;48.744;10.106;2023-02-28T05:36:54;96002.00;;;1.10
30765;BMP180;494;48.744;10.106;2023-02-28T05:39:23;96121.00;;;0.80
30765;BMP180;494;48.744;10.106;2023-02-28T05:41:51;94973.00;;;1.00
30765;BMP180;494;48.744;10.106;2023-02-28T05:44:20;96342.00;;;0.80
30765;BMP180;494;48.744;10.106;2023-02-28T05:46:49;95201.00;;;0.90
30765;BMP180;494;48.744;10.106;2023-02-28T05:49:17;95933.00;;;-5.30
30765;BMP180;494;48.744;10.106;2023-02-28T05:51:46;96402.00;;;0.90
30765;BMP180;494;48.744;10.106;2023-02-28T05:54:16;94564.00;;;0.30
30765;BMP180;494;48.744;10.106;2023-02-28T05:56:45;95279.00;;;1.00
30765;BMP180;494;48.744;10.106;2023-02-28T05:59:14;96234.00;;;1.10
30765;BMP180;494;48.744;10.106;2023-02-28T06:01:44;95461.00;;;1.00
30765;BMP180;494;48.744;10.106;2023-02-28T06:04:18;95050.00;;;0.70
30765;BMP180;494;48.744;10.106;2023-02-28T06:06:58;95163.00;;;0.80
30765;BMP180;494;48.744;10.106;2023-02-28T06:09:28;96261.00;;;-5.30
30765;BMP180;494;48.744;10.106;2023-02-28T06:11:58;96281.00;;;0.30
30765;BMP180;494;48.744;10.106;2023-02-28T06:14:35;94956.00;;;0.50
30765;BMP180;494;48.744;10.106;2023-02-28T06:17:23;94954.00;;;-1.00
30765;BMP180;494;48.744;10.106;2023-02-28T06:20:51;96216.00;;;0.80
30765;BMP180;494;48.744;10.106;2023-02-28T06:28:12;96245.00;;;-1.80
30765;BMP180;494;48.744;10.106;2023-02-28T06:43:03;96403.00;;;-3.30
30765;BMP180;494;48.744;10.106;2023-02-28T06:45:35;96178.00;;;0.20
30765;BMP180;494;48.744;10.106;2023-02-28T06:48:06;96551.00;;;-4.60
30765;BMP180;494;48.744;10.106;2023-02-28T06:50:35;96229.00;;;0.60
30765;BMP180;494;48.744;10.106;2023-02-28T06:53:04;94909.00;;;0.70
30765;BMP180;494;48.744;10.106;2023-02-28T06:55:33;94760.00;;;-1.50
30765;BMP180;494;48.744;10.106;2023-02-28T06:58:02;96333.00;;;-2.60
30765;BMP180;494;48.744;10.106;2023-02-28T07:00:42;94673.00;;;0.50
30765;BMP180;494;48.744;10.106;2023-02-28T07:03:12;96256.00;;;-1.20
30765;BMP180;494;48.744;10.106;2023-02-28T07:05:42;94999.00;;;-4.80
30765;BMP180;494;48.744;10.106;2023-02-28T07:08:11;96480.00;;;0.60
30765;BMP180;494;48.744;10.106;2023-02-28T07:10:41;96313.00;;;-0.70
30765;BMP180;494;48.744;10.106;2023-02-28T07:13:10;96308.00;;;-4.20
30765;BMP180;494;48.744;10.106;2023-02-28T07:15:39;95693.00;;;-1.10
30765;BMP180;494;48.744;10.106;2023-02-28T07:18:11;95166.00;;;-2.80
30765;BMP180;494;48.744;10.106;2023-02-28T07:20:41;95848.00;;;0.70
30765;BMP180;494;48.744;10.106;2023-02-28T07:23:10;96511.00;;;0.60
30765;BMP180;494;48.744;10.106;2023-02-28T07:25:38;95272.00;;;0.90
30765;BMP180;494;48.744;10.106;2023-02-28T07:28:07;96064.00;;;0.90
30765;BMP180;494;48.744;10.106;2023-02-28T07:30:36;95902.00;;;0.90
30765;BMP180;494;48.744;10.106;2023-02-28T07:33:05;96409.00;;;1.10
30765;BMP180;494;48.744;10.106;2023-02-28T07:35:37;95332.00;;;1.10
30765;BMP180;494;48.744;10.106;2023-02-28T07:38:06;96447.00;;;1.20
30765;BMP180;494;48.744;10.106;2023-02-28T07:40:36;94500.00;;;1.50
30765;BMP180;494;48.744;10.106;2023-02-28T07:43:05;95994.00;;;-1.30
30765;BMP180;494;48.744;10.106;2023-02-28T07:45:34;96133.00;;;-1.40
30765;BMP180;494;48.744;10.106;2023-02-28T07:48:03;95174.00;;;1.50
30765;BMP180;494;48.744;10.106;2023-02-28T07:50:32;95190.00;;;1.00
30765;BMP180;494;48.744;10.106;2023-02-28T07:53:03;95980.00;;;2.00
30765;BMP180;494;48.744;10.106;2023-02-28T07:55:31;95215.00;;;-0.70
30765;BMP180;494;48.744;10.106;2023-02-28T07:58:00;95646.00;;;-2.10
30765;BMP180;494;48.744;10.106;2023-02-28T08:00:29;96471.00;;;1.70
30765;BMP180;494;48.744;10.106;2023-02-28T08:02:59;96372.00;;;-2.30
30765;BMP180;494;48.744;10.106;2023-02-28T08:05:28;96112.00;;;2.40
30765;BMP180;494;48.744;10.106;2023-02-28T08:07:57;95944.00;;;1.40
30765;BMP180;494;48.744;10.106;2023-02-28T08:10:27;96051.00;;;2.60
30765;BMP180;494;48.744;10.106;2023-02-28T08:12:56;96261.00;;;1.20
30765;BMP180;494;48.744;10.106;2023-02-28T08:15:25;95860.00;;;2.10
30765;BMP180;494;48.744;10.106;2023-02-28T08:17:54;96105.00;;;2.60
30765;BMP180;494;48.744;10.106;2023-02-28T08:20:23;95992.00;;;2.60
30765;BMP180;494;48.744;10.106;2023-02-28T08:22:52;96115.00;;;2.60
30765;BMP180;494;48.744;10.106;2023-02-28T08:25:21;95439.00;;;0.70
30765;BMP180;494;48.744;10.106;2023-02-28T08:27:52;95195.00;;;1.50
30765;BMP180;494;48.744;10.106;2023-02-28T08:30:21;94579.00;;;2.70
30765;BMP180;494;48.744;10.106;2023-02-28T08:32:51;96275.00;;;3.20
30765;BMP180;494;48.744;10.106;2023-02-28T08:35:19;96274.00;;;3.60
30765;BMP180;494;48.744;10.106;2023-02-28T08:37:48;95816.00;;;2.90
30765;BMP180;494;48.744;10.106;2023-02-28T08:40:17;96030.00;;;3.80
30765;BMP180;494;48.744;10.106;2023-02-28T08:42:46;96015.00;;;4.30
30765;BMP180;494;48.744;10.106;2023-02-28T08:45:17;96124.00;;;4.20
30765;BMP180;494;48.744;10.106;2023-02-28T08:47:46;96222.00;;;4.30
30765;BMP180;494;48.744;10.106;2023-02-28T08:50:15;95259.00;;;4.10
30765;BMP180;494;48.744;10.106;2023-02-28T08:52:44;96334.00;;;3.60
30765;BMP180;494;48.744;10.106;2023-02-28T08:55:12;95594.00;;;4.70
30765;BMP180;494;48.744;10.106;2023-02-28T08:57:41;96275.00;;;2.40
30765;BMP180;494;48.744;10.106;2023-02-28T09:00:11;96039.00;;;4.50
30765;BMP180;494;48.744;10.106;2023-02-28T09:02:42;96266.00;;;4.00
30765;BMP180;494;48.744;10.106;2023-02-28T09:05:11;96076.00;;;3.60
30765;BMP180;494;48.744;10.106;2023-02-28T09:07:40;95916.00;;;3.70
30765;BMP180;494;48.744;10.106;2023-02-28T09:10:10;95775.00;;;3.50
30765;BMP180;494;48.744;10.106;2023-02-28T09:12:38;96282.00;;;3.60
30765;BMP180;494;48.744;10.106;2023-02-28T09:15:09;96283.00;;;3.20
30765;BMP180;494;48.744;10.106;2023-02-28T09:17:37;95857.00;;;2.00
30765;BMP180;494;48.744;10.106;2023-02-28T09:20:10;96289.00;;;3.40
30765;BMP180;494;48.744;10.106;2023-02-28T09:22:39;96155.00;;;3.60
30765;BMP180;494;48.744;10.106;2023-02-28T09:25:07;96332.00;;;3.50
30765;BMP180;494;48.744;10.106;2023-02-28T09:27:36;96324.00;;;3.30
30765;BMP180;494;48.744;10.106;2023-02-28T09:30:07;96010.00;;;3.70
30765;BMP180;494;48.744;10.106;2023-02-28T09:32:36;95714.00;;;3.20
30765;BMP180;494;48.744;10.106;2023-02-28T09:35:07;96206.00;;;3.90
30765;BMP180;494;48.744;10.106;2023-02-28T09:37:40;96292.00;;;3.50
30765;BMP180;494;48.744;10.106;2023-02-28T09:40:11;96180.00;;;3.30
30765;BMP180;494;48.744;10.106;2023-02-28T09:42:40;95903.00;;;3.10
30765;BMP180;494;48.744;10.106;2023-02-28T09:45:21;96231.00;;;3.10
30765;BMP180;494;48.744;10.106;2023-02-28T09:47:54;96024.00;;;2.70
30765;BMP180;494;48.744;10.106;2023-02-28T09:50:35;96289.00;;;3.50
30765;BMP180;494;48.744;10.106;2023-02-28T09:53:14;96369.00;;;3.70
30765;BMP180;494;48.744;10.106;2023-02-28T09:55:49;96300.00;;;3.90
30765;BMP180;494;48.744;10.106;2023-02-28T09:58:26;96373.00;;;3.80
30765;BMP180;494;48.744;10.106;2023-02-28T10:01:03;96039.00;;;4.30
30765;BMP180;494;48.744;10.106;2023-02-28T10:03:39;96288.00;;;4.20
30765;BMP180;494;48.744;10.106;2023-02-28T10:06:16;96298.00;;;4.20
30765;BMP180;494;48.744;10.106;2023-02-28T10:08:56;95949.00;;;3.90
30765;BMP180;494;48.744;10.106;2023-02-28T10:11:28;96396.00;;;3.70
30765;BMP180;494;48.744;10.106;2023-02-28T10:14:06;95916.00;;;6.80
30765;BMP180;494;48.744;10.106;2023-02-28T10:16:44;96244.00;;;8.30
30765;BMP180;494;48.744;10.106;2023-02-28T10:19:24;96282.00;;;9.20
30765;BMP180;494;48.744;10.106;2023-02-28T10:22:00;96056.00;;;10.90
30765;BMP180;494;48.744;10.106;2023-02-28T10:24:34;95997.00;;;10.40
30765;BMP180;494;48.744;10.106;2023-02-28T10:27:14;96277.00;;;12.50
30765;BMP180;494;48.744;10.106;2023-02-28T10:29:45;96193.00;;;8.40
30765;BMP180;494;48.744;10.106;2023-02-28T10:32:18;95892.00;;;10.40
30765;BMP180;494;48.744;10.106;2023-02-28T10:34:52;95496.00;;;10.40
30765;BMP180;494;48.744;10.106;2023-02-28T10:37:25;96185.00;;;11.70
30765;BMP180;494;48.744;10.106;2023-02-28T10:39:55;95831.00;;;12.30
30765;BMP180;494;48.744;10.106;2023-02-28T10:42:27;96343.00;;;12.50
30765;BMP180;494;48.744;10.106;2023-02-28T10:45:20;96262.00;;;13.80
30765;BMP180;494;48.744;10.106;2023-02-28T10:47:55;96256.00;;;13.50
30765;BMP180;494;48.744;10.106;2023-02-28T10:50:39;96113.00;;;13.70
30765;BMP180;494;48.744;10.106;2023-02-28T10:53:31;96056.00;;;14.20
30765;BMP180;494;48.744;10.106;2023-02-28T10:56:22;96251.00;;;15.20
30765;BMP180;494;48.744;10.106;2023-02-28T10:58:57;96336.00;;;14.10
30765;BMP180;494;48.744;10.106;2023-02-28T11:01:37;96258.00;;;15.30
30765;BMP180;494;48.744;10.106;2023-02-28T11:04:18;95958.00;;;14.00
30765;BMP180;494;48.744;10.106;2023-02-28T11:06:58;96286.00;;;15.60
30765;BMP180;494;48.744;10.106;2023-02-28T11:09:33;96267.00;;;15.80
30765;BMP180;494;48.744;10.106;2023-02-28T11:12:04;95669.00;;;15.90
30765;BMP180;494;48.744;10.106;2023-02-28T11:14:49;95976.00;;;15.60
30765;BMP180;494;48.744;10.106;2023-02-28T11:17:22;96192.00;;;16.00
30765;BMP180;494;48.744;10.106;2023-02-28T11:19:55;96122.00;;;16.20
30765;BMP180;494;48.744;10.106;2023-02-28T11:22:28;96270.00;;;15.60
30765;BMP180;494;48.744;10.106;2023-02-28T11:25:03;95841.00;;;13.30
30765;BMP180;494;48.744;10.106;2023-02-28T11:27:47;96260.00;;;16.60
30765;BMP180;494;48.744;10.106;2023-02-28T11:30:35;96013.00;;;16.50
30765;BMP180;494;48.744;10.106;2023-02-28T11:33:32;96188.00;;;16.00
30765;BMP180;494;48.744;10.106;2023-02-28T11:36:13;96169.00;;;15.50
30765;BMP180;494;48.744;10.106;2023-02-28T11:38:42;96279.00;;;14.40
30765;BMP180;494;48.744;10.106;2023-02-28T11:41:38;96065.00;;;15.80
30765;BMP180;494;48.744;10.106;2023-02-28T11:44:27;96264.00;;;16.40
30765;BMP180;494;48.744;10.106;2023-02-28T11:47:04;96127.00;;;17.20
30765;BMP180;494;48.744;10.106;2023-02-28T11:49:49;96259.00;;;17.90
30765;BMP180;494;48.744;10.106;2023-02-28T11:52:30;96189.00;;;17.80
30765;BMP180;494;48.744;10.106;2023-02-28T11:55:14;96335.00;;;19.70
30765;BMP180;494;48.744;10.106;2023-02-28T11:58:16;96152.00;;;19.40
30765;BMP180;494;48.744;10.106;2023-02-28T12:01:05;96310.00;;;19.00
30765;BMP180;494;48.744;10.106;2023-02-28T12:03:45;96247.00;;;18.70
30765;BMP180;494;48.744;10.106;2023-02-28T12:06:25;96306.00;;;18.50
30765;BMP180;494;48.744;10.106;2023-02-28T12:09:33;96202.00;;;19.00
30765;BMP180;494;48.744;10.106;2023-02-28T12:12:23;96268.00;;;18.30
30765;BMP180;494;48.744;10.106;2023-02-28T12:15:19;95881.00;;;18.40
30765;BMP180;494;48.744;10.106;2023-02-28T12:18:08;96074.00;;;18.90
30765;BMP180;494;48.744;10.106;2023-02-28T12:20:48;96268.00;;;18.80
30765;BMP180;494;48.744;10.106;2023-02-28T12:23:43;96296.00;;;17.60
30765;BMP180;494;48.744;10.106;2023-02-28T12:26:23;96284.00;;;18.40
30765;BMP180;494;48.744;10.106;2023-02-28T12:29:04;96289.00;;;17.70
30765;BMP180;494;48.744;10.106;2023-02-28T12:31:43;95730.00;;;16.70
30765;BMP180;494;48.744;10.106;2023-02-28T12:34:20;95819.00;;;16.70
30765;BMP180;494;48.744;10.106;2023-02-28T12:36:53;95947.00;;;18.00
30765;BMP180;494;48.744;10.106;2023-02-28T12:39:30;96148.00;;;18.40
30765;BMP180;494;48.744;10.106;2023-02-28T12:42:24;96292.00;;;18.30
30765;BMP180;494;48.744;10.106;2023-02-28T12:44:59;95859.00;;;17.70
30765;BMP180;494;48.744;10.106;2023-02-28T12:47:31;95971.00;;;18.40
30765;BMP180;494;48.744;10.106;2023-02-28T12:50:08;96309.00;;;18.40
30765;BMP180;494;48.744;10.106;2023-02-28T12:52:49;96154.00;;;17.90
30765;BMP180;494;48.744;10.106;2023-02-28T12:55:35;96032.00;;;18.30
30765;BMP180;494;48.744;10.106;2023-02-28T12:58:16;95709.00;;;16.80
30765;BMP180;494;48.744;10.106;2023-02-28T13:01:24;96285.00;;;15.50
30765;BMP180;494;48.744;10.106;2023-02-28T13:04:30;96272.00;;;15.80
30765;BMP180;494;48.744;10.106;2023-02-28T13:10:08;95854.00;;;14.40
30765;BMP180;494;48.744;10.106;2023-02-28T13:12:49;96167.00;;;14.60
30765;BMP180;494;48.744;10.106;2023-02-28T13:15:22;95864.00;;;14.40
30765;BMP180;494;48.744;10.106;2023-02-28T13:17:55;95912.00;;;14.40
30765;BMP180;494;48.744;10.106;2023-02-28T13:20:31;96087.00;;;14.50
30765;BMP180;494;48.744;10.106;2023-02-28T13:23:02;96239.00;;;13.70
30765;BMP180;494;48.744;10.106;2023-02-28T13:25:53;96092.00;;;14.60
30765;BMP180;494;48.744;10.106;2023-02-28T13:29:21;96258.00;;;14.10
30765;BMP180;494;48.744;10.106;2023-02-28T13:32:20;96252.00;;;13.70
30765;BMP180;494;48.744;10.106;2023-02-28T13:35:36;96261.00;;;13.90
30765;BMP180;494;48.744;10.106;2023-02-28T13:38:34;96273.00;;;14.10
30765;BMP180;494;48.744;10.106;2023-02-28T13:41:41;96111.00;;;13.60
30765;BMP180;494;48.744;10.106;2023-02-28T13:44:12;96215.00;;;13.90
30765;BMP180;494;48.744;10.106;2023-02-28T13:47:23;96311.00;;;14.10
30765;BMP180;494;48.744;10.106;2023-02-28T13:50:23;96294.00;;;14.30
30765;BMP180;494;48.744;10.106;2023-02-28T13:56:24;95884.00;;;10.60
30765;BMP180;494;48.744;10.106;2023-02-28T13:59:06;96173.00;;;13.90
30765;BMP180;494;48.744;10.106;2023-02-28T14:01:53;95669.00;;;13.80
30765;BMP180;494;48.744;10.106;2023-02-28T14:04:53;96107.00;;;12.30
30765;BMP180;494;48.744;10.106;2023-02-28T14:07:29;95955.00;;;12.30
30765;BMP180;494;48.744;10.106;2023-02-28T14:10:07;96488.00;;;12.50
30765;BMP180;494;48.744;10.106;2023-02-28T14:12:55;96332.00;;;12.40
30765;BMP180;494;48.744;10.106;2023-02-28T14:15:56;96255.00;;;12.50
30765;BMP180;494;48.744;10.106;2023-02-28T14:18:32;96242.00;;;12.00
30765;BMP180;494;48.744;10.106;2023-02-28T14:21:11;95901.00;;;13.40
30765;BMP180;494;48.744;10.106;2023-02-28T14:27:26;95879.00;;;13.50
30765;BMP180;494;48.744;10.106;2023-02-28T14:30:46;96247.00;;;13.20
30765;BMP180;494;48.744;10.106;2023-02-28T14:33:46;96310.00;;;14.80
30765;BMP180;494;48.744;10.106;2023-02-28T14:36:23;96306.00;;;14.90
30765;BMP180;494;48.744;10.106;2023-02-28T14:38:56;96009.00;;;15.10
30765;BMP180;494;48.744;10.106;2023-02-28T14:41:31;96247.00;;;15.70
30765;BMP180;494;48.744;10.106;2023-02-28T14:44:15;96247.00;;;16.00
30765;BMP180;494;48.744;10.106;2023-02-28T14:46:47;96291.00;;;16.10
30765;BMP180;494;48.744;10.106;2023-02-28T14:49:20;96327.00;;;16.40
30765;BMP180;494;48.744;10.106;2023-02-28T14:52:02;96252.00;;;16.20
30765;BMP180;494;48.744;10.106;2023-02-28T14:54:31;96268.00;;;15.90
30765;BMP180;494;48.744;10.106;2023-02-28T14:56:59;96014.00;;;14.50
30765;BMP180;494;48.744;10.106;2023-02-28T14:59:33;96259.00;;;15.00
30765;BMP180;494;48.744;10.106;2023-02-28T15:02:19;96261.00;;;15.40
30765;BMP180;494;48.744;10.106;2023-02-28T15:04:57;96175.00;;;15.50
30765;BMP180;494;48.744;10.106;2023-02-28T15:07:27;96274.00;;;14.60
30765;BMP180;494;48.744;10.106;2023-02-28T15:10:16;96054.00;;;13.80
30765;BMP180;494;48.744;10.106;2023-02-28T15:12:52;96269.00;;;14.20
30765;BMP180;494;48.744;10.106;2023-02-28T15:15:33;96272.00;;;14.20
30765;BMP180;494;48.744;10.106;2023-02-28T15:18:23;96032.00;;;13.90
30765;BMP180;494;48.744;10.106;2023-02-28T15:20:53;96273.00;;;13.70
30765;BMP180;494;48.744;10.106;2023-02-28T15:23:23;96264.00;;;13.80
30765;BMP180;494;48.744;10.106;2023-02-28T15:25:53;96154.00;;;13.60
30765;BMP180;494;48.744;10.106;2023-02-28T15:28:23;96248.00;;;13.60
30765;BMP180;494;48.744;10.106;2023-02-28T15:30:57;96330.00;;;13.40
30765;BMP180;494;48.744;10.106;2023-02-28T15:33:29;96159.00;;;12.50
30765;BMP180;494;48.744;10.106;2023-02-28T15:36:14;96055.00;;;12.00
30765;BMP180;494;48.744;10.106;2023-02-28T15:38:44;96171.00;;;11.20
30765;BMP180;494;48.744;10.106;2023-02-28T15:41:30;96343.00;;;10.90
30765;BMP180;494;48.744;10.106;2023-02-28T15:44:17;96283.00;;;10.00
30765;BMP180;494;48.744;10.106;2023-02-28T15:46:59;96294.00;;;11.10
30765;BMP180;494;48.744;10.106;2023-02-28T15:49:38;96296.00;;;10.90
30765;BMP180;494;48.744;10.106;2023-02-28T15:52:15;96078.00;;;10.70
30765;BMP180;494;48.744;10.106;2023-02-28T15:54:45;96294.00;;;9.70